createdAt,value
2022-07-28T00:07:53.855Z,2.2
2022-07-28T00:19:53.505Z,2.0
2022-07-28T00:31:53.518Z,2.0
2022-07-28T00:43:53.547Z,2.0
2022-07-28T00:56:05.939Z,3.2
2022-07-28T01:07:53.710Z,3.2
2022-07-28T01:19:54.022Z,1.8
2022-07-28T01:31:54.091Z,1.8
2022-07-28T01:43:53.871Z,1.8
2022-07-28T01:55:53.707Z,1.7
2022-07-28T02:07:53.491Z,1.7
2022-07-28T02:19:53.496Z,1.4
2022-07-28T02:31:53.622Z,1.4
2022-07-28T02:43:53.802Z,1.4
2022-07-28T02:55:53.816Z,2.5
2022-07-28T03:07:53.748Z,2.5
2022-07-28T03:19:53.461Z,1.9
2022-07-28T03:31:54.181Z,1.9
2022-07-28T03:43:53.787Z,1.9
2022-07-28T03:55:54.186Z,1.8
2022-07-28T04:07:53.806Z,1.8
2022-07-28T04:19:53.907Z,3.3
2022-07-28T04:31:53.864Z,3.3
2022-07-28T04:43:53.713Z,3.3
2022-07-28T04:55:54.832Z,2.6
2022-07-28T05:07:53.986Z,2.6
2022-07-28T05:19:53.927Z,3.1
2022-07-28T05:31:53.977Z,3.1
2022-07-28T05:43:53.741Z,3.1
2022-07-28T05:55:59.842Z,3.4
2022-07-28T06:07:53.885Z,3.4
2022-07-28T06:19:53.810Z,2.3
2022-07-28T06:31:53.954Z,2.3
2022-07-28T06:43:53.773Z,2.3
2022-07-28T06:55:54.013Z,2.3
2022-07-28T07:07:54.602Z,2.3
2022-07-28T07:19:54.069Z,2.0
2022-07-28T07:31:54.495Z,2.0
2022-07-28T07:43:54.068Z,2.0
2022-07-28T07:55:53.511Z,1.8
2022-07-28T08:07:53.855Z,1.8
2022-07-28T08:19:54.082Z,1.7
2022-07-28T08:31:54.107Z,1.7
2022-07-28T08:43:53.802Z,1.7
2022-07-28T08:55:54.569Z,1.3
2022-07-28T09:07:54.905Z,1.3
2022-07-28T09:19:54.033Z,0.9
2022-07-28T09:31:55.800Z,0.9
2022-07-28T09:43:55.177Z,0.9
2022-07-28T09:55:53.754Z,0.9
2022-07-28T10:07:53.727Z,0.9
2022-07-28T10:19:53.672Z,3.2
2022-07-28T10:31:54.120Z,3.2
2022-07-28T10:43:53.734Z,3.2
2022-07-28T10:55:53.633Z,3.7
2022-07-28T11:07:53.798Z,3.7
2022-07-28T11:31:53.502Z,4.0
2022-07-28T11:43:53.845Z,4.0
2022-07-28T11:56:02.976Z,3.8
2022-07-28T12:07:53.743Z,3.8
2022-07-28T12:19:53.848Z,4.5
2022-07-28T12:31:53.858Z,4.5
2022-07-28T12:43:53.668Z,4.5
2022-07-28T12:55:53.678Z,2.9
2022-07-28T13:07:53.779Z,2.9
2022-07-28T13:19:53.512Z,3.4
2022-07-28T13:31:53.612Z,3.4
2022-07-28T13:43:53.726Z,3.4
2022-07-28T13:55:53.587Z,2.2
2022-07-28T14:07:53.725Z,2.2
2022-07-28T14:19:53.691Z,3.9
2022-07-28T14:31:53.597Z,3.9
2022-07-28T14:43:53.469Z,3.9
2022-07-28T14:55:53.935Z,6.4
2022-07-28T15:07:53.680Z,6.4
2022-07-28T15:19:53.770Z,2.9
2022-07-28T15:31:53.746Z,2.9
2022-07-28T15:43:53.704Z,2.9
2022-07-28T15:55:53.615Z,4.1
2022-07-28T16:07:53.577Z,4.1
2022-07-28T16:19:53.836Z,4.4
2022-07-28T16:31:53.504Z,4.4
2022-07-28T16:43:53.589Z,4.4
2022-07-28T16:55:53.481Z,3.2
2022-07-28T17:07:53.473Z,3.2
2022-07-28T17:19:53.553Z,2.3
2022-07-28T17:31:53.926Z,2.3
2022-07-28T17:43:53.769Z,2.3
2022-07-28T17:56:00.508Z,3.8
2022-07-28T18:07:57.406Z,3.8
2022-07-28T18:19:53.520Z,4.0
2022-07-28T18:31:53.672Z,4.0
2022-07-28T18:43:53.463Z,4.0
2022-07-28T18:55:53.507Z,4.3
2022-07-28T19:07:53.495Z,4.3
2022-07-28T19:19:53.688Z,2.3
2022-07-28T19:31:53.822Z,2.3
2022-07-28T19:43:53.529Z,2.3
2022-07-28T19:55:53.702Z,2.7
2022-07-28T20:07:53.427Z,2.7
2022-07-28T20:19:53.481Z,2.9
2022-07-28T20:31:54.088Z,2.9
2022-07-28T20:44:18.219Z,2.9
2022-07-28T20:55:53.453Z,3.4
2022-07-28T21:08:00.642Z,3.4
2022-07-28T21:19:53.580Z,3.7
2022-07-28T21:32:02.341Z,3.7
2022-07-28T21:43:53.444Z,3.7
2022-07-28T21:55:53.638Z,2.9
2022-07-28T22:07:53.585Z,2.9
2022-07-28T22:19:53.562Z,2.8
2022-07-28T22:31:58.871Z,2.8
2022-07-28T22:43:53.537Z,2.8
2022-07-28T22:55:53.519Z,2.4
2022-07-28T23:07:57.234Z,2.4
2022-07-28T23:19:53.516Z,2.7
2022-07-28T23:31:53.566Z,2.7
2022-07-28T23:43:53.902Z,2.7
2022-07-28T23:55:53.473Z,1.6
